FAUP

Details ICAO FAUP (UTN)
Name Upington
Region South Africa
Timezone Africa/Johannesburg (UTC+2.0)
Plans Departing 27
Arriving 26
Stats Elevation 2,791 ft / 851 m (AMSL)
Location -28.401673° 21.261191°
Runways 3
Magnetic Variation 19.809° W
Sunrise 2018-05-25 05:16:55 UTC / 2018-05-25 07:16:55 Local
Sunset 2018-05-25 15:49:44 UTC / 2018-05-25 17:49:44 Local
Advertisement - Login to hide

Runways

ID Width Length Bearing (true) Bearing (mag) Surface Threshold Offset Overrun Length
01 150 ft / 46 m 8,008 ft / 2,441 m 349.62° 9.43° Asphalt 0 ft / 0 m 0 ft / 0 m
08 98 ft / 30 m 2,739 ft / 835 m 59.59° 79.40° Asphalt 0 ft / 0 m 0 ft / 0 m
17 197 ft / 60 m 16,091 ft / 4,905 m 153.53° 173.34° Asphalt 0 ft / 0 m 1,181 ft / 360 m
19 150 ft / 46 m 8,008 ft / 2,441 m 169.62° 189.43° Asphalt 0 ft / 0 m 0 ft / 0 m
26 98 ft / 30 m 2,739 ft / 835 m 239.59° 259.40° Asphalt 0 ft / 0 m 0 ft / 0 m
35 197 ft / 60 m 16,091 ft / 4,905 m 333.51° 353.32° Asphalt 0 ft / 0 m 1,180 ft / 360 m

Map

Weather


0- 5 10 15 20 25 30 35+ Temperature / ° C

Clouds and Precipitation
Forecast for 2018-05-25 06:00 UTC. Updated 6 minutes ago

Ground ~20,000 ft ~40,000 ft Winds

METAR

FAUP 250500Z 23003KT CAVOK 08/06 Q1021 NOSIG

TAF

TAF FAUP 242200Z 2500/2524 18005KT CAVOK PROB30 TEMPO 2503/2508 SCT005 TX23/2513Z TN06/2504Z

Frequencies

Tower 121.30 MHz TWR
Approach 121.30 MHz APP
Warning: Do not use this data for real-world aviation or navigation. No guarantee of current accuracy is given.